OPRNOPNH

Guest
Details From OPRN - CHAKLALA
To OPNH - NAWABSHAH
Flight Number -
Tags generated
Created
Modified
Stats Distance 507 nm / 939 km
Max Altitude 34,000 ft / 10,363 m
Waypoints 7
Social Downloads 0
Likes 0
Share VATSIM

Download

Looking for another format? Having issues loading an existing format? Contact us
Advertisement - Login to hide

Notes

Basic altitude profile: - Ascent Rate: 2500ft/min - Ascent Speed: 250kts - Cruise Altitude: 35000ft - Cruise Speed: 420kts - Descent Rate: 1500ft/min - Descent Speed: 250kts Options: - Use NATs: yes - Use PACOTS: yes - Use low airways: yes - Use high airways: yes

Route

OPRN BALKA J157 BARDO OPNH

ID Type Via Altitude Latitude Longitude Leg Dist Tot Dist Heading (true) Name
O OPRN APT - 0 ft / 0 m 33.61677˚ 73.09881˚ - 0 nm - CHAKLALA
BALKA FIX - 14,200 ft / 4,328 m 32.98833˚ 72.69611˚ 42 nm 42 nm 208° / 208° -
SARDA FIX J157 (AWY-LO) 34,000 ft / 10,363 m 31.07667˚ 71.40972˚ 132 nm 174 nm 210° / 209° -
KUMMI FIX J157 (AWY-HI) 34,000 ft / 10,363 m 30.22194˚ 70.81972˚ 59 nm 234 nm 211° / 211° -
MARKA FIX J157 (AWY-HI) 32,800 ft / 9,997 m 28.47028˚ 69.74806˚ 119 nm 353 nm 208° / 208° -
BARDO FIX J157 (AWY-HI) 20,000 ft / 6,096 m 27.40194˚ 69.09472˚ 72 nm 426 nm 209° / 208° -
O OPNH APT - 0 ft / 0 m 26.21944˚ 68.39005˚ 80 nm 507 nm 208° / 208° NAWABSHAH

Altitude Profile

Advertisement - Login to hide

Weather


0- 5 10 15 20 25 30 35+ Temperature / ° C

Clouds and Precipitation
Forecast for 2017-12-13 06:00 UTC. Updated 2 hours ago

Ground ~20,000 ft ~40,000 ft Winds

OPRN

Details ICAO OPRN (ISB)
Name CHAKLALA
Region Pakistan
Timezone Asia/Karachi (UTC+5.0)
Stats Elevation 1,668 ft / 508 m (AMSL)
Location 33.616768° 73.098812°
Runways 1
Magnetic Variation 2.613° E

METAR

OPRN 130700Z 13004KT 1800 BR FEW010ST SCT036 BKN110 11/09 Q1020.6/30.14

Decode

TAF

Not found

Departure Runways

ID Width Length Bearing (true) Bearing (mag) Surface Threshold Offset Overrun Length
12 150 ft / 46 m 10,795 ft / 3,290 m 118.28° 115.67° Asphalt 885 ft / 270 m 680 ft / 207 m
30 150 ft / 46 m 10,795 ft / 3,290 m 298.30° 295.69° Asphalt 885 ft / 270 m 740 ft / 226 m

OPNH

Details ICAO OPNH (WNS)
Name NAWABSHAH
Region Pakistan
Timezone Asia/Karachi (UTC+5.0)
Stats Elevation 95 ft / 29 m (AMSL)
Location 26.219439° 68.390055°
Runways 1
Magnetic Variation 1.256° E

METAR

OPNH 130658Z 36008KT 3000 FU NSC 19/05 Q1019 NOSIG

Decode

TAF

Not found

Destination Runways

ID Width Length Bearing (true) Bearing (mag) Surface Threshold Offset Overrun Length
02 150 ft / 46 m 9,031 ft / 2,753 m 20.42° 19.16° Concrete 0 ft / 0 m 934 ft / 285 m
20 150 ft / 46 m 9,031 ft / 2,753 m 200.42° 199.16° Concrete 0 ft / 0 m 934 ft / 285 m